Wetterdaten: Woche 04.10.21 - 10.10.21 (KW40)
Datum Zeit Temp. Aussen Temp. o. S. Temp +5cm Feuchte Auss Luftdruck Regen Sonnenschein Regendauer Solar Windben Empfang
04.10.2021 00:00 11,9 C 11,1 C 11,0 C 88 % 1012,6 hPa 0,0 l/m 0,00 h 0,00 h 0 W/m 9,0 km/h (2 Bft) 97,27 %
04.10.2021 01:00 11,8 C 11,1 C 10,6 C 89 % 1013,0 hPa 0,0 l/m 0,00 h 0,00 h 0 W/m 7,8 km/h (2 Bft) 97,38 %
04.10.2021 02:00 11,7 C 11,1 C 10,6 C 89 % 1013,5 hPa 0,0 l/m 0,00 h 0,00 h 0 W/m 13,0 km/h (3 Bft) 98,30 %
04.10.2021 03:00 11,6 C 10,9 C 10,6 C 90 % 1013,8 hPa 0,0 l/m 0,00 h 0,00 h 0 W/m 6,7 km/h (2 Bft) 96,96 %
04.10.2021 04:00 11,3 C 10,6 C 10,6 C 90 % 1013,9 hPa 0,0 l/m 0,00 h 0,00 h 0 W/m 5,0 km/h (1 Bft) 96,94 %
04.10.2021 05:00 11,1 C 10,5 C 10,5 C 91 % 1014,4 hPa 0,0 l/m 0,00 h 0,00 h 0 W/m 6,9 km/h (2 Bft) 95,96 %
04.10.2021 06:00 10,8 C 10,0 C 10,0 C 92 % 1014,8 hPa 0,0 l/m 0,00 h 0,00 h 0 W/m 6,0 km/h (2 Bft) 99,04 %
04.10.2021 07:00 10,7 C 10,0 C 10,0 C 93 % 1015,1 hPa 0,0 l/m 0,00 h 0,00 h 4 W/m 5,6 km/h (1 Bft) 97,87 %
04.10.2021 08:00 10,8 C 10,4 C 10,3 C 93 % 1016,1 hPa 0,0 l/m 0,00 h 0,00 h 32 W/m 7,3 km/h (2 Bft) 96,27 %
04.10.2021 09:00 11,5 C 11,5 C 11,1 C 93 % 1016,4 hPa 0,0 l/m 0,00 h 0,00 h 72 W/m 7,6 km/h (2 Bft) 98,23 %
04.10.2021 10:00 12,5 C 12,7 C 12,1 C 90 % 1016,6 hPa 0,0 l/m 0,00 h 0,00 h 143 W/m 10,1 km/h (2 Bft) 97,79 %
04.10.2021 11:00 14,7 C 16,9 C 16,0 C 82 % 1016,8 hPa 0,0 l/m 0,70 h 0,00 h 304 W/m 16,4 km/h (3 Bft) 94,47 %
04.10.2021 12:00 16,3 C 17,1 C 15,7 C 73 % 1016,9 hPa 0,2 l/m 0,10 h 0,00 h 221 W/m 22,9 km/h (4 Bft) 99,26 %
04.10.2021 13:00 17,0 C 17,4 C 15,0 C 66 % 1016,8 hPa 0,0 l/m 0,37 h 0,00 h 288 W/m 27,8 km/h (4 Bft) 96,37 %
04.10.2021 14:00 18,1 C 21,5 C 15,0 C 59 % 1016,5 hPa 0,0 l/m 1,00 h 0,00 h 601 W/m 29,9 km/h (5 Bft) 98,01 %
04.10.2021 15:00 18,4 C 18,2 C 15,1 C 59 % 1016,3 hPa 0,0 l/m 0,93 h 0,00 h 480 W/m 25,1 km/h (4 Bft) 96,73 %
04.10.2021 16:00 18,4 C 19,7 C 15,1 C 59 % 1016,3 hPa 0,0 l/m 0,70 h 0,00 h 305 W/m 18,5 km/h (3 Bft) 99,00 %
04.10.2021 17:00 17,4 C 17,0 C 14,0 C 62 % 1016,1 hPa 0,0 l/m 0,37 h 0,00 h 97 W/m 13,3 km/h (3 Bft) 98,22 %
04.10.2021 18:00 16,6 C 15,6 C 13,0 C 64 % 1016,0 hPa 0,0 l/m 0,00 h 0,00 h 21 W/m 11,8 km/h (2 Bft) 96,09 %
04.10.2021 19:00 15,2 C 13,7 C 11,4 C 68 % 1015,9 hPa 0,0 l/m 0,00 h 0,00 h 4 W/m 4,1 km/h (1 Bft) 98,87 %
04.10.2021 20:00 13,8 C 12,5 C 10,5 C 73 % 1015,7 hPa 0,0 l/m 0,00 h 0,00 h 0 W/m 3,9 km/h (1 Bft) 96,35 %
04.10.2021 21:00 12,8 C 11,8 C 9,9 C 76 % 1015,6 hPa 0,0 l/m 0,00 h 0,00 h 0 W/m 4,9 km/h (1 Bft) 96,24 %
04.10.2021 22:00 12,3 C 11,4 C 9,7 C 79 % 1015,5 hPa 0,0 l/m 0,00 h 0,00 h 0 W/m 5,3 km/h (1 Bft) 97,93 %
04.10.2021 23:00 11,5 C 10,6 C 9,0 C 83 % 1015,2 hPa 0,0 l/m 0,00 h 0,00 h 0 W/m 4,9 km/h (1 Bft) 98,35 %
05.10.2021 00:00 10,9 C 10,1 C 8,9 C 86 % 1014,8 hPa 0,0 l/m 0,00 h 0,00 h 0 W/m 5,8 km/h (2 Bft) 96,17 %
05.10.2021 01:00 10,6 C 10,0 C 8,7 C 88 % 1014,2 hPa 0,0 l/m 0,00 h 0,00 h 0 W/m 6,1 km/h (2 Bft) 97,52 %
05.10.2021 02:00 10,3 C 9,5 C 8,4 C 90 % 1013,6 hPa 0,0 l/m 0,00 h 0,00 h 0 W/m 9,2 km/h (2 Bft) 98,25 %
05.10.2021 03:00 10,3 C 9,4 C 8,4 C 91 % 1012,8 hPa 0,0 l/m 0,00 h 0,00 h 0 W/m 10,2 km/h (2 Bft) 96,84 %
05.10.2021 04:00 10,0 C 9,4 C 8,4 C 92 % 1011,8 hPa 0,0 l/m 0,00 h 0,00 h 0 W/m 7,7 km/h (2 Bft) 95,99 %
05.10.2021 05:00 10,1 C 9,4 C 8,6 C 92 % 1011,1 hPa 0,0 l/m 0,00 h 0,00 h 0 W/m 7,2 km/h (2 Bft) 97,45 %
05.10.2021 06:00 9,9 C 9,0 C 8,4 C 93 % 1010,4 hPa 0,0 l/m 0,00 h 0,00 h 0 W/m 7,0 km/h (2 Bft) 97,95 %
05.10.2021 07:00 9,9 C 9,4 C 8,6 C 93 % 1009,6 hPa 0,0 l/m 0,00 h 0,00 h 6 W/m 7,7 km/h (2 Bft) 97,48 %
05.10.2021 08:00 10,3 C 9,9 C 9,3 C 94 % 1009,1 hPa 0,0 l/m 0,00 h 0,00 h 26 W/m 10,6 km/h (2 Bft) 96,82 %
05.10.2021 09:00 11,0 C 10,7 C 9,9 C 93 % 1008,6 hPa 0,0 l/m 0,00 h 0,00 h 54 W/m 14,1 km/h (3 Bft) 99,08 %
05.10.2021 10:00 12,2 C 12,2 C 11,2 C 90 % 1008,1 hPa 0,0 l/m 0,00 h 0,00 h 69 W/m 18,0 km/h (3 Bft) 96,37 %
05.10.2021 11:00 14,7 C 18,2 C 17,7 C 83 % 1007,3 hPa 0,0 l/m 0,57 h 0,00 h 313 W/m 18,6 km/h (3 Bft) 97,51 %
05.10.2021 12:00 16,9 C 17,0 C 15,5 C 73 % 1006,1 hPa 0,0 l/m 0,08 h 0,00 h 100 W/m 25,7 km/h (4 Bft) 97,83 %
05.10.2021 13:00 17,7 C 17,4 C 15,2 C 69 % 1005,4 hPa 0,0 l/m 0,07 h 0,00 h 154 W/m 26,4 km/h (4 Bft) 97,05 %
05.10.2021 14:00 17,9 C 18,0 C 15,3 C 69 % 1004,8 hPa 0,0 l/m 0,10 h 0,00 h 198 W/m 19,2 km/h (3 Bft) 96,44 %
05.10.2021 15:00 16,9 C 15,4 C 12,8 C 75 % 1004,2 hPa 1,0 l/m 0,00 h 0,70 h 54 W/m 19,3 km/h (3 Bft) 97,65 %
05.10.2021 16:00 14,7 C 13,3 C 11,1 C 88 % 1003,9 hPa 2,2 l/m 0,00 h 1,00 h 21 W/m 10,1 km/h (2 Bft) 98,29 %
05.10.2021 17:00 14,2 C 13,1 C 11,3 C 93 % 1004,0 hPa 0,4 l/m 0,03 h 0,50 h 46 W/m 12,5 km/h (3 Bft) 97,93 %
05.10.2021 18:00 13,9 C 13,2 C 11,0 C 91 % 1004,7 hPa 0,0 l/m 0,60 h 0,10 h 45 W/m 15,2 km/h (3 Bft) 96,16 %
05.10.2021 19:00 13,0 C 11,9 C 10,1 C 90 % 1005,4 hPa 0,0 l/m 0,00 h 0,00 h 5 W/m 15,3 km/h (3 Bft) 97,94 %
05.10.2021 20:00 12,2 C 11,1 C 9,8 C 91 % 1006,1 hPa 0,0 l/m 0,00 h 0,00 h 0 W/m 9,1 km/h (2 Bft) 98,15 %
05.10.2021 21:00 11,8 C 11,1 C 9,9 C 92 % 1006,8 hPa 0,0 l/m 0,00 h 0,00 h 0 W/m 7,0 km/h (2 Bft) 97,01 %
05.10.2021 22:00 12,1 C 11,7 C 10,1 C 91 % 1007,5 hPa 0,0 l/m 0,00 h 0,00 h 0 W/m 16,1 km/h (3 Bft) 97,15 %
05.10.2021 23:00 12,3 C 11,7 C 10,6 C 89 % 1008,3 hPa 0,0 l/m 0,00 h 0,00 h 0 W/m 16,7 km/h (3 Bft) 99,07 %
06.10.2021 00:00 12,3 C 11,6 C 10,6 C 87 % 1008,8 hPa 0,0 l/m 0,00 h 0,00 h 0 W/m 18,8 km/h (3 Bft) 95,58 %
06.10.2021 01:00 11,6 C 10,9 C 10,1 C 89 % 1009,4 hPa 0,0 l/m 0,00 h 0,00 h 0 W/m 22,2 km/h (4 Bft) 97,65 %
06.10.2021 02:00 11,2 C 10,6 C 9,7 C 89 % 1010,0 hPa 0,0 l/m 0,00 h 0,00 h 0 W/m 22,9 km/h (4 Bft) 99,43 %
06.10.2021 03:00 11,3 C 10,7 C 9,9 C 89 % 1010,3 hPa 0,0 l/m 0,00 h 0,00 h 0 W/m 25,3 km/h (4 Bft) 95,01 %
06.10.2021 04:00 11,3 C 10,7 C 9,8 C 88 % 1010,5 hPa 0,0 l/m 0,00 h 0,00 h 0 W/m 25,2 km/h (4 Bft) 99,08 %
06.10.2021 05:00 11,2 C 10,6 C 9,8 C 88 % 1010,7 hPa 0,0 l/m 0,00 h 0,00 h 0 W/m 29,3 km/h (5 Bft) 97,79 %
06.10.2021 06:00 11,4 C 10,6 C 10,0 C 87 % 1011,1 hPa 0,0 l/m 0,00 h 0,00 h 0 W/m 27,0 km/h (4 Bft) 96,43 %
06.10.2021 07:00 11,5 C 10,9 C 9,9 C 85 % 1011,5 hPa 0,0 l/m 0,00 h 0,13 h 5 W/m 26,2 km/h (4 Bft) 98,08 %
06.10.2021 08:00 10,9 C 9,8 C 8,5 C 90 % 1012,0 hPa 1,0 l/m 0,00 h 0,97 h 12 W/m 23,2 km/h (4 Bft) 98,58 %
06.10.2021 09:00 10,5 C 9,9 C 8,8 C 93 % 1012,2 hPa 0,2 l/m 0,00 h 0,73 h 45 W/m 26,9 km/h (4 Bft) 95,38 %
06.10.2021 10:00 11,2 C 10,8 C 9,1 C 90 % 1012,6 hPa 0,0 l/m 0,00 h 0,23 h 109 W/m 32,2 km/h (5 Bft) 99,80 %
06.10.2021 11:00 11,2 C 10,8 C 9,5 C 91 % 1013,3 hPa 0,0 l/m 0,00 h 0,83 h 120 W/m 30,5 km/h (5 Bft) 96,69 %
06.10.2021 12:00 11,2 C 10,9 C 9,7 C 94 % 1014,0 hPa 0,0 l/m 0,00 h 0,83 h 118 W/m 27,2 km/h (4 Bft) 97,47 %
06.10.2021 13:00 11,5 C 11,2 C 10,0 C 94 % 1014,5 hPa 0,0 l/m 0,00 h 0,53 h 89 W/m 20,6 km/h (4 Bft) 98,58 %
06.10.2021 14:00 12,1 C 12,1 C 10,6 C 92 % 1015,0 hPa 0,0 l/m 0,00 h 0,30 h 177 W/m 21,2 km/h (4 Bft) 97,58 %
06.10.2021 15:00 12,4 C 12,1 C 10,6 C 91 % 1015,6 hPa 0,0 l/m 0,00 h 0,03 h 83 W/m 20,4 km/h (4 Bft) 96,38 %
06.10.2021 16:00 12,3 C 11,8 C 10,6 C 93 % 1016,2 hPa 0,2 l/m 0,00 h 0,27 h 68 W/m 16,6 km/h (3 Bft) 99,50 %
06.10.2021 17:00 12,2 C 11,8 C 10,7 C 94 % 1016,8 hPa 0,4 l/m 0,00 h 0,33 h 43 W/m 17,3 km/h (3 Bft) 96,01 %
06.10.2021 18:00 11,9 C 11,1 C 10,6 C 95 % 1017,6 hPa 0,2 l/m 0,00 h 0,57 h 9 W/m 14,8 km/h (3 Bft) 98,07 %
06.10.2021 19:00 11,9 C 11,1 C 10,8 C 96 % 1018,5 hPa 0,4 l/m 0,00 h 0,13 h 0 W/m 14,8 km/h (3 Bft) 98,50 %
06.10.2021 20:00 12,0 C 11,2 C 11,1 C 96 % 1019,6 hPa 0,0 l/m 0,00 h 0,00 h 0 W/m 12,5 km/h (3 Bft) 96,89 %
06.10.2021 21:00 11,9 C 11,1 C 11,1 C 96 % 1020,5 hPa 0,4 l/m 0,00 h 0,17 h 0 W/m 8,6 km/h (2 Bft) 97,13 %
06.10.2021 22:00 11,9 C 11,1 C 11,1 C 96 % 1021,2 hPa 0,0 l/m 0,00 h 0,03 h 0 W/m 8,5 km/h (2 Bft) 98,79 %
06.10.2021 23:00 11,9 C 11,1 C 11,1 C 96 % 1021,7 hPa 0,0 l/m 0,00 h 0,00 h 0 W/m 8,1 km/h (2 Bft) 94,41 %
07.10.2021 00:00 11,8 C 11,1 C 11,1 C 97 % 1022,4 hPa 0,0 l/m 0,00 h 0,00 h 0 W/m 7,8 km/h (2 Bft) 98,34 %
07.10.2021 01:00 11,9 C 11,1 C 11,3 C 97 % 1022,8 hPa 0,0 l/m 0,00 h 0,00 h 0 W/m 4,9 km/h (1 Bft) 97,63 %
07.10.2021 02:00 12,0 C 11,1 C 11,7 C 97 % 1023,4 hPa 0,0 l/m 0,00 h 0,00 h 0 W/m 4,5 km/h (1 Bft) 96,20 %
07.10.2021 03:00 11,9 C 11,1 C 11,7 C 97 % 1023,8 hPa 0,0 l/m 0,00 h 0,00 h 0 W/m 4,1 km/h (1 Bft) 97,65 %
07.10.2021 04:00 11,9 C 11,1 C 11,7 C 97 % 1024,2 hPa 0,0 l/m 0,00 h 0,00 h 0 W/m 2,7 km/h (1 Bft) 97,01 %
07.10.2021 05:00 11,8 C 11,1 C 11,7 C 98 % 1024,7 hPa 0,0 l/m 0,00 h 0,00 h 0 W/m 4,0 km/h (1 Bft) 97,93 %
07.10.2021 06:00 11,5 C 11,1 C 11,5 C 98 % 1025,3 hPa 0,0 l/m 0,00 h 0,00 h 0 W/m 3,3 km/h (1 Bft) 97,69 %
07.10.2021 07:00 11,5 C 11,1 C 11,2 C 98 % 1025,8 hPa 0,0 l/m 0,00 h 0,00 h 0 W/m 1,2 km/h (1 Bft) 97,50 %
07.10.2021 08:00 11,5 C 11,2 C 11,6 C 98 % 1026,5 hPa 0,0 l/m 0,00 h 0,00 h 26 W/m 0,6 km/h (0 Bft) 97,51 %
07.10.2021 09:00 11,8 C 12,3 C 12,1 C 98 % 1027,0 hPa 0,0 l/m 0,07 h 0,00 h 85 W/m 3,4 km/h (1 Bft) 97,72 %
07.10.2021 10:00 12,4 C 13,6 C 13,0 C 96 % 1027,4 hPa 0,0 l/m 0,30 h 0,00 h 168 W/m 4,8 km/h (1 Bft) 96,65 %
07.10.2021 11:00 14,6 C 20,5 C 17,2 C 87 % 1027,7 hPa 0,0 l/m 0,77 h 0,00 h 345 W/m 6,8 km/h (2 Bft) 98,08 %
07.10.2021 12:00 15,1 C 16,5 C 14,7 C 82 % 1028,0 hPa 0,0 l/m 0,17 h 0,00 h 145 W/m 7,0 km/h (2 Bft) 97,53 %
07.10.2021 13:00 15,3 C 17,1 C 14,0 C 80 % 1028,2 hPa 0,0 l/m 0,43 h 0,00 h 349 W/m 7,0 km/h (2 Bft) 98,15 %
07.10.2021 14:00 17,3 C 21,5 C 14,5 C 72 % 1028,1 hPa 0,0 l/m 0,97 h 0,00 h 556 W/m 7,1 km/h (2 Bft) 97,15 %
07.10.2021 15:00 16,6 C 16,0 C 13,7 C 72 % 1028,2 hPa 0,0 l/m 0,10 h 0,00 h 140 W/m 4,6 km/h (1 Bft) 98,58 %
07.10.2021 16:00 16,8 C 18,4 C 13,8 C 73 % 1028,2 hPa 0,0 l/m 0,90 h 0,00 h 319 W/m 5,4 km/h (1 Bft) 96,75 %
07.10.2021 17:00 16,7 C 16,4 C 13,3 C 73 % 1028,2 hPa 0,0 l/m 0,63 h 0,00 h 140 W/m 4,1 km/h (1 Bft) 97,93 %
07.10.2021 18:00 15,5 C 14,0 C 11,8 C 78 % 1028,5 hPa 0,0 l/m 0,00 h 0,00 h 24 W/m 2,4 km/h (1 Bft) 98,56 %
07.10.2021 19:00 13,9 C 12,1 C 10,6 C 85 % 1029,2 hPa 0,0 l/m 0,00 h 0,00 h 0 W/m 1,7 km/h (1 Bft) 96,01 %
07.10.2021 20:00 12,6 C 11,0 C 9,9 C 89 % 1029,6 hPa 0,0 l/m 0,00 h 0,00 h 0 W/m 2,1 km/h (1 Bft) 98,86 %
07.10.2021 21:00 11,6 C 10,1 C 9,3 C 91 % 1029,8 hPa 0,0 l/m 0,00 h 0,00 h 0 W/m 0,3 km/h (0 Bft) 98,08 %
07.10.2021 22:00 10,6 C 9,4 C 8,9 C 93 % 1029,8 hPa 0,0 l/m 0,00 h 0,00 h 0 W/m 0,5 km/h (0 Bft) 97,86 %
07.10.2021 23:00 10,1 C 8,9 C 8,7 C 94 % 1030,0 hPa 0,0 l/m 0,00 h 0,00 h 0 W/m 0,0 km/h (0 Bft) 96,37 %
08.10.2021 00:00 9,4 C 8,1 C 8,2 C 94 % 1030,2 hPa 0,0 l/m 0,00 h 0,00 h 0 W/m 0,0 km/h (0 Bft) 97,68 %
08.10.2021 01:00 8,6 C 7,4 C 7,6 C 95 % 1030,4 hPa 0,0 l/m 0,00 h 0,00 h 0 W/m 0,2 km/h (0 Bft) 98,93 %
08.10.2021 02:00 8,0 C 6,9 C 7,3 C 95 % 1030,5 hPa 0,0 l/m 0,00 h 0,00 h 0 W/m 0,0 km/h (0 Bft) 96,65 %
08.10.2021 03:00 7,4 C 6,4 C 6,9 C 95 % 1030,6 hPa 0,0 l/m 0,00 h 0,00 h 0 W/m 0,0 km/h (0 Bft) 96,51 %
08.10.2021 04:00 6,9 C 5,9 C 6,6 C 95 % 1030,6 hPa 0,0 l/m 0,00 h 0,00 h 0 W/m 0,0 km/h (0 Bft) 99,19 %
08.10.2021 05:00 6,4 C 5,6 C 6,1 C 95 % 1030,6 hPa 0,0 l/m 0,00 h 0,00 h 0 W/m 0,1 km/h (0 Bft) 97,49 %
08.10.2021 06:00 6,1 C 5,6 C 6,1 C 96 % 1030,8 hPa 0,0 l/m 0,00 h 0,00 h 0 W/m 0,0 km/h (0 Bft) 97,44 %
08.10.2021 07:00 6,0 C 5,1 C 6,0 C 96 % 1031,0 hPa 0,0 l/m 0,00 h 0,00 h 6 W/m 0,0 km/h (0 Bft) 96,54 %
08.10.2021 08:00 6,0 C 5,7 C 6,2 C 96 % 1031,3 hPa 0,2 l/m 0,00 h 0,00 h 20 W/m 0,0 km/h (0 Bft) 97,77 %
08.10.2021 09:00 6,5 C 7,3 C 7,5 C 97 % 1031,6 hPa 0,0 l/m 0,00 h 0,00 h 46 W/m 0,0 km/h (0 Bft) 97,59 %
08.10.2021 10:00 8,9 C 10,4 C 9,6 C 98 % 1031,7 hPa 0,0 l/m 0,00 h 0,00 h 50 W/m 1,4 km/h (1 Bft) 96,87 %
08.10.2021 11:00 13,4 C 22,0 C 16,5 C 91 % 1031,5 hPa 0,0 l/m 0,60 h 0,00 h 294 W/m 4,6 km/h (1 Bft) 97,94 %
08.10.2021 12:00 15,8 C 17,5 C 15,0 C 78 % 1031,3 hPa 0,0 l/m 0,10 h 0,00 h 100 W/m 8,9 km/h (2 Bft) 97,42 %
08.10.2021 13:00 16,5 C 17,4 C 13,9 C 75 % 1030,9 hPa 0,0 l/m 0,33 h 0,00 h 237 W/m 9,1 km/h (2 Bft) 97,79 %
08.10.2021 14:00 17,3 C 22,6 C 14,5 C 72 % 1030,4 hPa 0,0 l/m 1,00 h 0,00 h 557 W/m 9,6 km/h (2 Bft) 96,38 %
08.10.2021 15:00 17,9 C 17,8 C 14,8 C 71 % 1030,1 hPa 0,0 l/m 1,00 h 0,00 h 471 W/m 8,8 km/h (2 Bft) 98,66 %
08.10.2021 16:00 18,1 C 19,0 C 14,6 C 71 % 1029,7 hPa 0,0 l/m 1,00 h 0,00 h 335 W/m 7,7 km/h (2 Bft) 97,94 %
08.10.2021 17:00 17,3 C 16,5 C 13,7 C 74 % 1029,2 hPa 0,0 l/m 0,43 h 0,00 h 110 W/m 8,8 km/h (2 Bft) 97,59 %
08.10.2021 18:00 16,0 C 14,8 C 12,7 C 79 % 1029,2 hPa 0,0 l/m 0,00 h 0,00 h 18 W/m 5,4 km/h (1 Bft) 97,22 %
08.10.2021 19:00 14,4 C 12,8 C 11,0 C 83 % 1029,4 hPa 0,0 l/m 0,00 h 0,00 h 0 W/m 3,1 km/h (1 Bft) 97,65 %
08.10.2021 20:00 13,2 C 11,9 C 10,2 C 86 % 1029,6 hPa 0,0 l/m 0,00 h 0,00 h 0 W/m 3,1 km/h (1 Bft) 98,43 %
08.10.2021 21:00 12,3 C 11,1 C 9,7 C 88 % 1029,7 hPa 0,0 l/m 0,00 h 0,00 h 0 W/m 3,6 km/h (1 Bft) 96,27 %
08.10.2021 22:00 11,6 C 10,4 C 9,3 C 90 % 1029,6 hPa 0,0 l/m 0,00 h 0,00 h 0 W/m 1,3 km/h (1 Bft) 97,44 %
08.10.2021 23:00 11,1 C 9,8 C 8,8 C 91 % 1029,5 hPa 0,0 l/m 0,00 h 0,00 h 0 W/m 0,6 km/h (0 Bft) 99,07 %
09.10.2021 00:00 10,5 C 9,4 C 8,5 C 93 % 1029,6 hPa 0,0 l/m 0,00 h 0,00 h 0 W/m 2,5 km/h (1 Bft) 95,54 %
09.10.2021 01:00 10,3 C 9,2 C 8,6 C 94 % 1029,5 hPa 0,0 l/m 0,00 h 0,00 h 0 W/m 3,5 km/h (1 Bft) 98,15 %
09.10.2021 02:00 9,7 C 8,4 C 8,2 C 95 % 1029,4 hPa 0,0 l/m 0,00 h 0,00 h 0 W/m 1,2 km/h (1 Bft) 97,02 %
09.10.2021 03:00 8,8 C 7,5 C 7,5 C 95 % 1029,3 hPa 0,0 l/m 0,00 h 0,00 h 0 W/m 0,0 km/h (0 Bft) 98,16 %
09.10.2021 04:00 8,4 C 7,6 C 7,3 C 95 % 1029,0 hPa 0,0 l/m 0,00 h 0,00 h 0 W/m 2,5 km/h (1 Bft) 93,76 %
09.10.2021 05:00 8,4 C 7,3 C 7,3 C 96 % 1028,9 hPa 0,0 l/m 0,00 h 0,00 h 0 W/m 1,4 km/h (1 Bft) 98,51 %
09.10.2021 06:00 7,9 C 7,0 C 7,3 C 96 % 1028,9 hPa 0,0 l/m 0,00 h 0,00 h 0 W/m 1,3 km/h (1 Bft) 98,68 %
09.10.2021 07:00 7,5 C 6,7 C 6,7 C 96 % 1028,9 hPa 0,0 l/m 0,00 h 0,00 h 5 W/m 1,3 km/h (1 Bft) 95,37 %
09.10.2021 08:00 7,4 C 6,8 C 7,0 C 96 % 1029,3 hPa 0,0 l/m 0,00 h 0,00 h 22 W/m 1,9 km/h (1 Bft) 99,86 %
09.10.2021 09:00 8,0 C 8,0 C 8,0 C 97 % 1029,7 hPa 0,0 l/m 0,00 h 0,00 h 52 W/m 3,3 km/h (1 Bft) 96,72 %
09.10.2021 10:00 9,5 C 10,6 C 9,8 C 98 % 1030,0 hPa 0,0 l/m 0,00 h 0,00 h 61 W/m 3,1 km/h (1 Bft) 97,93 %
09.10.2021 11:00 11,9 C 20,3 C 14,7 C 95 % 1030,0 hPa 0,0 l/m 0,60 h 0,00 h 285 W/m 4,3 km/h (1 Bft) 98,29 %
09.10.2021 12:00 14,3 C 15,9 C 13,9 C 80 % 1029,8 hPa 0,0 l/m 0,13 h 0,00 h 99 W/m 6,0 km/h (2 Bft) 96,59 %
09.10.2021 13:00 15,3 C 16,6 C 13,4 C 75 % 1029,6 hPa 0,0 l/m 0,33 h 0,00 h 230 W/m 6,7 km/h (2 Bft) 96,72 %
09.10.2021 14:00 17,2 C 22,7 C 13,6 C 70 % 1029,1 hPa 0,0 l/m 1,00 h 0,00 h 551 W/m 6,3 km/h (2 Bft) 99,36 %
09.10.2021 15:00 17,7 C 17,2 C 14,2 C 68 % 1028,7 hPa 0,0 l/m 1,00 h 0,00 h 464 W/m 6,7 km/h (2 Bft) 95,71 %
09.10.2021 16:00 17,8 C 18,1 C 13,8 C 69 % 1028,3 hPa 0,0 l/m 1,00 h 0,00 h 332 W/m 5,2 km/h (1 Bft) 98,15 %
09.10.2021 17:00 17,2 C 16,0 C 13,1 C 71 % 1028,0 hPa 0,0 l/m 0,40 h 0,00 h 98 W/m 3,6 km/h (1 Bft) 98,80 %
09.10.2021 18:00 15,8 C 13,7 C 11,3 C 76 % 1027,9 hPa 0,0 l/m 0,00 h 0,00 h 18 W/m 1,5 km/h (1 Bft) 96,12 %
09.10.2021 19:00 13,8 C 11,4 C 9,5 C 81 % 1028,1 hPa 0,0 l/m 0,00 h 0,00 h 0 W/m 0,2 km/h (0 Bft) 99,50 %
09.10.2021 20:00 12,0 C 10,1 C 8,5 C 84 % 1028,1 hPa 0,0 l/m 0,00 h 0,00 h 0 W/m 0,0 km/h (0 Bft) 96,72 %
09.10.2021 21:00 10,8 C 9,1 C 8,0 C 88 % 1028,1 hPa 0,0 l/m 0,00 h 0,00 h 0 W/m 0,0 km/h (0 Bft) 96,51 %
09.10.2021 22:00 9,7 C 8,2 C 7,3 C 90 % 1028,1 hPa 0,0 l/m 0,00 h 0,00 h 0 W/m 0,0 km/h (0 Bft) 98,29 %
09.10.2021 23:00 8,9 C 7,8 C 7,1 C 91 % 1028,2 hPa 0,0 l/m 0,00 h 0,00 h 0 W/m 0,5 km/h (0 Bft) 98,01 %
10.10.2021 00:00 9,1 C 8,9 C 8,4 C 92 % 1028,1 hPa 0,0 l/m 0,00 h 0,00 h 0 W/m 4,6 km/h (1 Bft) 97,92 %
10.10.2021 01:00 9,4 C 8,8 C 8,3 C 86 % 1028,1 hPa 0,0 l/m 0,00 h 0,00 h 0 W/m 5,3 km/h (1 Bft) 96,16 %
10.10.2021 02:00 9,1 C 8,2 C 7,5 C 83 % 1028,1 hPa 0,0 l/m 0,00 h 0,00 h 0 W/m 4,2 km/h (1 Bft) 96,82 %
10.10.2021 03:00 8,4 C 7,4 C 6,9 C 84 % 1028,0 hPa 0,0 l/m 0,00 h 0,00 h 0 W/m 3,6 km/h (1 Bft) 98,86 %
10.10.2021 04:00 7,7 C 6,8 C 6,3 C 86 % 1027,6 hPa 0,0 l/m 0,00 h 0,00 h 0 W/m 5,0 km/h (1 Bft) 95,51 %
10.10.2021 05:00 7,1 C 6,2 C 5,8 C 88 % 1027,4 hPa 0,0 l/m 0,00 h 0,00 h 0 W/m 5,3 km/h (1 Bft) 98,79 %
10.10.2021 06:00 6,5 C 5,7 C 5,5 C 89 % 1027,3 hPa 0,0 l/m 0,00 h 0,00 h 0 W/m 4,6 km/h (1 Bft) 97,60 %
10.10.2021 07:00 6,1 C 5,4 C 5,0 C 90 % 1027,5 hPa 0,0 l/m 0,00 h 0,00 h 6 W/m 3,2 km/h (1 Bft) 98,51 %
10.10.2021 08:00 6,0 C 5,7 C 5,1 C 91 % 1027,5 hPa 0,0 l/m 0,00 h 0,00 h 24 W/m 7,7 km/h (2 Bft) 95,65 %
10.10.2021 09:00 6,8 C 6,8 C 6,2 C 92 % 1027,7 hPa 0,0 l/m 0,00 h 0,00 h 49 W/m 5,3 km/h (1 Bft) 98,57 %
10.10.2021 10:00 8,2 C 8,8 C 7,7 C 92 % 1027,7 hPa 0,0 l/m 0,00 h 0,00 h 87 W/m 5,2 km/h (1 Bft) 97,89 %
10.10.2021 11:00 11,0 C 16,0 C 11,9 C 86 % 1027,7 hPa 0,0 l/m 0,77 h 0,00 h 282 W/m 6,3 km/h (2 Bft) 93,91 %
10.10.2021 12:00 13,1 C 14,3 C 12,3 C 81 % 1027,7 hPa 0,0 l/m 0,17 h 0,00 h 242 W/m 6,4 km/h (2 Bft) 99,05 %
10.10.2021 13:00 13,9 C 15,0 C 11,9 C 79 % 1027,2 hPa 0,0 l/m 0,40 h 0,00 h 275 W/m 7,5 km/h (2 Bft) 97,15 %
10.10.2021 14:00 15,7 C 20,7 C 12,4 C 73 % 1027,0 hPa 0,0 l/m 1,00 h 0,00 h 538 W/m 7,0 km/h (2 Bft) 98,01 %
10.10.2021 15:00 16,2 C 15,9 C 12,9 C 71 % 1026,6 hPa 0,0 l/m 1,00 h 0,00 h 441 W/m 6,1 km/h (2 Bft) 97,57 %
10.10.2021 16:00 16,7 C 16,5 C 12,9 C 71 % 1026,3 hPa 0,0 l/m 1,00 h 0,00 h 304 W/m 7,3 km/h (2 Bft) 98,91 %
10.10.2021 17:00 16,0 C 15,0 C 12,4 C 75 % 1026,2 hPa 0,0 l/m 0,27 h 0,00 h 91 W/m 6,5 km/h (2 Bft) 96,71 %
10.10.2021 18:00 14,6 C 13,3 C 11,1 C 79 % 1026,1 hPa 0,0 l/m 0,43 h 0,00 h 28 W/m 3,4 km/h (1 Bft) 95,89 %
10.10.2021 19:00 12,9 C 10,4 C 8,7 C 82 % 1026,3 hPa 0,0 l/m 0,00 h 0,00 h 0 W/m 0,3 km/h (0 Bft) 98,57 %
10.10.2021 20:00 11,2 C 9,2 C 7,8 C 86 % 1026,5 hPa 0,0 l/m 0,00 h 0,00 h 0 W/m 0,3 km/h (0 Bft) 96,80 %
10.10.2021 21:00 10,1 C 8,6 C 7,5 C 89 % 1026,7 hPa 0,0 l/m 0,00 h 0,00 h 0 W/m 0,0 km/h (0 Bft) 97,29 %
10.10.2021 22:00 9,3 C 8,2 C 7,3 C 90 % 1026,9 hPa 0,0 l/m 0,00 h 0,00 h 0 W/m 0,0 km/h (0 Bft) 97,58 %
10.10.2021 23:00 8,9 C 7,8 C 7,2 C 92 % 1026,9 hPa 0,0 l/m 0,00 h 0,00 h 0 W/m 0,0 km/h (0 Bft) 99,02 %
Min-Datum _ 08.10.21 08.10.21 10.10.21 04.10.21 05.10.21 - - - - 04.10.21 04.10.21
_ Min-Zeit 07:30 06:22 06:48 15:44 16:00 - - - - 03:36 20:10
Minimum _ 5,9 C 5,0 C 5,0 C 57 % 1003,8 hPa - - - - 0,0 km/h (0 Bft) 52,50 %
Max-Datum _ 04.10.21 09.10.21 08.10.21 07.10.21 08.10.21 05.10.21 05.10.21 06.10.21 07.10.21 04.10.21 04.10.21
_ Max-Zeit 15:34 14:16 11:46 04:28 10:06 16:18 18:08 12:08 13:42 14:48 00:16
Maximum _ 18,6 C 28,9 C 20,6 C 98 % 1031,8 hPa 2,2 l/m 0,07 h 0,07 h 659 W/m 54,7 km/h
S-SO (7 Bft)
100,00 %
Durchschnitt _ 12,1 C 11,9 C 10,5 C 87 % 1021,6 hPa #6,8 l/m #23:55 h #8:24 h 161 W/m 8,5 km/h (2 Bft) 97,48 %
© 2021 W. Hausmann